Flight Track Log - Related Links

Times and Time Zones

All times are in EDT time to prevent confusion due to time zone crossing. See the SKW6345 flight status page for this flight to view local times or setup timezone preferences in your user account.

Time Position Orientation Groundspeed Altitude Reporting Facility
EDT Latitude Longitude Course Direction KTS MPH feet Rate Location/Type
Sat 11:30:18 AM 37.6500 -122.3500 38° Northeast 173 199 1,700  Level Northern Cal TRACON
Sat 11:31:18 AM 37.6833 -122.3000 50° Northeast 226 260 3,600 2,050 Climbing Northern Cal TRACON
Sat 11:32:18 AM 37.7333 -122.2333 47° Northeast 270 311 5,800 2,156 Climbing Northern Cal TRACON
Sat 11:33:00 AM 37.7124 -122.2710 38° Northeast  Level FlightAware Approximate
Sat 11:34:00 AM 37.8222 -122.1611 38° Northeast  Level FlightAware Approximate
Sat 11:34:05 AM 37.8506 -122.1272 36° Northeast 289 333 9,600  Level Oakland Center
Sat 11:35:00 AM 37.9321 -122.0512 38° Northeast  Level FlightAware Approximate
Sat 11:35:06 AM 37.9167 -122.0622 38° Northeast 298 343 11,700  Level Oakland Center
Sat 11:36:07 AM 37.9861 -121.9967 37° Northeast 309 356 13,700 1,756 Climbing Oakland Center
Sat 11:37:09 AM 38.0589 -121.9261 37° Northeast 320 368 15,300 1,220 Climbing Oakland Center
Sat 11:38:10 AM 38.1372 -121.8533 36° Northeast 335 386 16,200 1,131 Climbing Oakland Center
Sat 11:39:11 AM 38.2267 -121.7808 32° Northeast 363 418 17,600 1,328 Climbing Oakland Center
Sat 11:40:12 AM 38.3153 -121.7075 33° Northeast 378 435 18,900 1,328 Climbing Oakland Center
Sat 11:41:13 AM 38.4236 -121.6169 33° Northeast 386 444 20,300 1,122 Climbing Oakland Center
Sat 11:42:15 AM 38.5011 -121.5525 33° Northeast 393 452 21,200 927 Climbing Oakland Center
Sat 11:43:16 AM 38.6114 -121.4606 33° Northeast 406 467 22,200 934 Climbing Oakland Center
Sat 11:44:17 AM 38.6975 -121.3897 33° Northeast 412 474 23,100 885 Climbing Oakland Center
Sat 11:45:18 AM 38.7950 -121.3047 34° Northeast 417 480 24,000 885 Climbing Oakland Center
Sat 11:46:19 AM 38.9142 -121.2039 33° Northeast 423 487 24,900 829 Climbing Oakland Center
Sat 11:47:21 AM 39.0139 -121.1186 34° Northeast 428 493 25,700 683 Climbing Oakland Center
Sat 11:48:22 AM 39.1153 -121.0317 34° Northeast 436 502 26,300 590 Climbing Oakland Center
Sat 11:49:23 AM 39.2181 -120.9453 33° Northeast 439 505 26,900 541 Climbing Oakland Center
Sat 11:50:24 AM 39.3206 -120.8556 34° Northeast 445 512 27,400 492 Climbing Oakland Center
Sat 11:51:25 AM 39.4250 -120.7672 33° Northeast 448 516 27,900 439 Climbing Oakland Center
Sat 11:52:27 AM 39.5294 -120.6750 34° Northeast 454 522 28,300 390 Climbing Oakland Center
Sat 11:53:28 AM 39.6347 -120.5839 34° Northeast 456 525 28,700 443 Climbing Oakland Center
Sat 11:54:29 AM 39.7408 -120.4917 34° Northeast 460 529 29,200 492 Climbing Oakland Center
Sat 11:55:30 AM 39.8486 -120.3983 34° Northeast 464 534 29,700 541 Climbing Oakland Center
Sat 11:56:31 AM 39.9556 -120.3042 34° Northeast 464 534 30,300 537 Climbing Oakland Center
Sat 11:57:33 AM 40.0786 -120.1967 34° Northeast 468 539 30,800 488 Climbing Oakland Center
Sat 11:58:34 AM 40.1853 -120.1011 34° Northeast 466 536 31,300 541 Climbing Oakland Center
Sat 11:59:35 AM 40.2933 -120.0061 34° Northeast 467 537 31,900 537 Climbing Oakland Center
Sat 12:00:37 PM 40.4019 -119.9089 34° Northeast 469 540 32,400 488 Climbing Oakland Center
Sat 12:01:38 PM 40.5081 -119.8139 34° Northeast 464 534 32,900 295 Climbing Oakland Center
Sat 12:02:39 PM 40.6192 -119.7147 34° Northeast 459 528 33,000 49 Climbing Oakland Center
Sat 12:03:40 PM 40.7283 -119.6158 34° Northeast 472 543 33,000  Level Oakland Center
Sat 12:04:42 PM 40.8464 -119.5086 34° Northeast 487 560 33,000  Level Oakland Center
Sat 12:05:43 PM 40.9547 -119.4100 34° Northeast 492 566 33,000  Level Oakland Center
Sat 12:06:44 PM 41.0819 -119.2917 35° Northeast 497 572 33,000  Level Oakland Center
Sat 12:07:46 PM 41.1917 -119.1917 34° Northeast 499 574 33,000  Level Oakland Center
Sat 12:08:47 PM 41.3222 -119.0714 35° Northeast 506 582 33,000  Level Oakland Center
Sat 12:09:49 PM 41.4339 -118.9686 35° Northeast 507 583 33,000  Level Oakland Center
Sat 12:10:50 PM 41.5447 -118.8644 35° Northeast 506 582 33,000  Level Oakland Center
Sat 12:11:51 PM 41.6719 -118.7464 35° Northeast 501 577 33,000  Level Oakland Center
Sat 12:13:22 PM 41.8375 -118.5908 35° Northeast 500 575 33,000  Level Salt Lake Center
Sat 12:14:24 PM 41.9653 -118.4717 35° Northeast 500 575 33,000  Level Salt Lake Center
Sat 12:15:26 PM 42.0742 -118.3672 35° Northeast 500 575 33,000  Level Salt Lake Center
Sat 12:16:28 PM 42.1828 -118.2622 36° Northeast 501 577 33,000  Level Salt Lake Center
Sat 12:17:30 PM 42.3097 -118.1428 35° Northeast 498 573 33,000  Level Salt Lake Center
Sat 12:18:32 PM 42.4336 -118.0175 37° Northeast 501 577 33,000  Level Salt Lake Center
Sat 12:19:34 PM 42.5408 -117.9114 36° Northeast 500 575 33,000  Level Salt Lake Center
Sat 12:20:37 PM 42.6358 -117.7847 44° Northeast 502 578 33,000  Level Salt Lake Center
Sat 12:21:39 PM 42.7283 -117.6128 54° Northeast 502 578 33,000  Level Salt Lake Center
Sat 12:22:41 PM 42.8072 -117.4661 54° Northeast 502 578 33,000  Level Salt Lake Center
Sat 12:23:43 PM 42.8994 -117.2947 54° Northeast 501 577 33,000  Level Salt Lake Center
Sat 12:24:45 PM 42.9783 -117.1464 54° Northeast 503 579 33,000  Level Salt Lake Center
Sat 12:25:47 PM 43.0706 -116.9742 54° Northeast 504 580 33,000  Level Salt Lake Center
Sat 12:26:49 PM 43.1492 -116.8244 54° Northeast 506 582 33,000  Level Salt Lake Center
Sat 12:27:51 PM 43.2414 -116.6511 54° Northeast 505 581 33,000  Level Salt Lake Center
Sat 12:28:53 PM 43.3197 -116.5006 54° Northeast 507 583 33,000  Level Salt Lake Center
Sat 12:29:55 PM 43.4117 -116.3253 54° Northeast 508 585 33,000  Level Salt Lake Center
Sat 12:30:57 PM 43.4903 -116.1744 54° Northeast 508 585 33,000  Level Salt Lake Center
Sat 12:31:59 PM 43.5814 -115.9967 55° Northeast 510 587 33,000  Level Salt Lake Center
Sat 12:33:01 PM 43.6592 -115.8447 55° Northeast 508 585 33,000  Level Salt Lake Center
Sat 12:34:03 PM 43.7494 -115.6669 55° Northeast 509 586 33,000  Level Salt Lake Center
Sat 12:35:05 PM 43.8269 -115.5128 55° Northeast 512 589 33,000  Level Salt Lake Center
Sat 12:36:07 PM 43.9175 -115.3331 55° Northeast 511 588 33,000  Level Salt Lake Center
Sat 12:37:09 PM 43.9950 -115.1792 55° Northeast 511 588 33,000  Level Salt Lake Center
Sat 12:38:11 PM 44.0850 -114.9972 55° Northeast 513 590 33,000  Level Salt Lake Center
Sat 12:39:13 PM 44.1617 -114.8419 55° Northeast 510 587 33,000  Level Salt Lake Center
Sat 12:40:15 PM 44.2517 -114.6592 55° Northeast 512 589 33,000  Level Salt Lake Center
Sat 12:41:17 PM 44.3289 -114.5011 56° Northeast 514 592 33,000  Level Salt Lake Center
Sat 12:42:19 PM 44.4194 -114.3175 55° Northeast 514 592 33,000  Level Salt Lake Center
Sat 12:43:21 PM 44.4967 -114.1589 56° Northeast 515 593 33,000  Level Salt Lake Center
Sat 12:44:23 PM 44.5853 -113.9719 56° Northeast 517 595 33,000  Level Salt Lake Center
Sat 12:45:25 PM 44.6583 -113.8114 57° Northeast 512 589 33,000  Level Salt Lake Center
Sat 12:46:27 PM 44.7339 -113.6492 57° Northeast 515 593 33,000  Level Salt Lake Center
Sat 12:47:29 PM 44.8239 -113.4608 56° Northeast 517 595 33,000  Level Salt Lake Center
Sat 12:48:31 PM 44.9003 -113.2989 56° Northeast 517 595 33,000  Level Salt Lake Center
Sat 12:49:33 PM 44.9897 -113.1083 56° Northeast 520 598 33,000  Level Salt Lake Center
Sat 12:50:35 PM 45.0719 -112.9289 57° Northeast 520 598 33,000  Level Salt Lake Center
Sat 12:51:37 PM 45.1531 -112.7542 57° Northeast 518 596 33,000 -774 Level Salt Lake Center
Sat 12:52:39 PM 45.2292 -112.5881 57° Northeast 520 598 31,400 -2,419 Descending Salt Lake Center
Sat 12:53:41 PM 45.3111 -112.3892 60° Northeast 521 600 28,000 -2,928 Descending Salt Lake Center
Sat 12:54:44 PM 45.3706 -112.2356 61° Northeast 506 582 25,300 -2,736 Descending Salt Lake Center
Sat 12:55:46 PM 45.4350 -112.0694 61° Northeast 485 558 22,300 -3,339 Descending Salt Lake Center
Sat 12:56:48 PM 45.5081 -111.8783 61° Northeast 461 531 18,400 -3,387 Descending Salt Lake Center
Sat 12:57:50 PM 45.5658 -111.7281 61° Northeast 440 506 15,300 -2,613 Descending Salt Lake Center
Sat 12:58:52 PM 45.6211 -111.5853 61° Northeast 417 480 13,000 -1,113 Descending Salt Lake Center
Sat 12:59:54 PM 45.6639 -111.4714 60° Northeast 358 412 13,000 -581 Level Salt Lake Center
Sat 01:00:00 PM 45.7007 -111.3485 60° Northeast  Level FlightAware Approximate
Sat 01:00:56 PM 45.7186 -111.4019 42° Northeast 293 337 11,800  Level Salt Lake Center
Sat 01:01:58 PM 45.7803 -111.3603 25° Northeast 263 303 10,300 -1,500 Descending Salt Lake Center
Sat 01:03:00 PM 45.8322 -111.3403 15° North 217 250 8,700 -1,839 Descending Salt Lake Center
Sat 01:04:02 PM 45.8844 -111.3236 13° North 187 215 6,500 -930 Descending Salt Lake Center
Sat 01:06:07 PM 45.8300 -111.2253 128° Southeast 163 188 5,800 -578 Descending Salt Lake Center
Sat 01:07:09 PM 45.7981 -111.1808 136° Southeast 162 186 4,700 -1,065 Descending Salt Lake Center

Login

Don't have an account? Register now (free) for customized features, flight alerts, and more!